Cheektowaga, NY

10:01 PM EST on February 28, 2015 (GMT -0500)
Buffalo Niagara International | Change Station
CLOSE
Current Station
Airport
Location: Buffalo,
Elevation: 702 ft
Nearby Weather Stations

Elev 702 ft 42.94 °N, 78.74 °W | Updated 7 minutes ago

Clear
Clear
7 °F
Feels Like -3 °F
N
6
Wind Variable Wind from ESE

Today
High -- | Low -- °F
--% Chance of Precip.
Yesterday
High -- | Low -- °F
Precip. -- in
6:52 AM 6:02 PM
Waxing Gibbous, 82% visible
Pressure 30.69 in
Visibility 10.0 miles
Clouds Few 20000 ft
Windchill -3 °F
Dew Point 0 °F
Humidity 73%
Rainfall 0.00 in
Snow Depth Not available.
UV 0 out of 12
Pollen .40 out of 12
Air Quality Not available.
Flu Activity Not available.
METAR KBUF 010254Z 12005KT 10SM FEW200 M14/M18 A3064 RMK AO2 SLP393 T11391178 58013

More Conditions Fewer Conditions

Pressure 30.69 in
Visibility 10.0 miles
Clouds Few 20000 ft
Windchill -3 °F
Dew Point 0 °F
Humidity 73%
Rainfall 0.00 in
Snow Depth Not available.
UV 0 out of 12
Pollen .40 out of 12
Air Quality Not available.
Flu Activity Not available.
METAR KBUF 010254Z 12005KT 10SM FEW200 M14/M18 A3064 RMK AO2 SLP393 T11391178 58013

More Conditions Fewer Conditions

10-Day Weather Forecast

Almanac

Astronomy

Feb. 28, 2015 Rise Set
Actual Time
Civil Twilight
Nautical Twilight
Astronomical Twilight
Moon
Length of Visible Light
Length of Day
Tomorrow will be .
, % of the Moon is Illuminated

Today's Extremes

State Highs State Lows

Community

WunderPhotos

Upload Photos

1,801,278 photos uploaded!

WunderBlogs® & News

Nearby

Air Quality

  Air Quality AQ Index Pollutant
Not available.

Snow Depth

Station Depth Elevation

Earthquake Activity

City Distance Mag. Time & Date
Minimum magnitude displayed is 2.5.

Coastal Water Temperatures

Place Temperature

Nearby Weather Stations